Time;durP1;ratioP1;P1;durP2;ratioP2;P2;SDS_P1;SDS_P2;PMS_P1;PMS_P2;Temp;Humidity;BMP_temperature;BMP_pressure;BME280_temperature;BME280_humidity;BME280_pressure;Samples;Min_cycle;Max_cycle;Signal;HPM_P1;HPM_P2
2022/05/08 00:00:31;;;;;;;15.53;12.03;;;;;;;;;;7381942;19;20129;-75
2022/05/08 00:02:58;;;;;;;12.80;11.40;;;;;;;;;;7379268;19;20599;-75
2022/05/08 00:05:27;;;;;;;13.60;11.80;;;;;;;;;;7372197;19;20187;-76
2022/05/08 00:07:53;;;;;;;16.90;13.07;;;;;;;;;;7371891;19;20522;-76
2022/05/08 00:10:19;;;;;;;16.93;13.63;;;;;;;;;;7369260;19;20460;-76
2022/05/08 00:12:45;;;;;;;14.07;12.57;;;;;;;;;;7375662;19;20170;-77
2022/05/08 00:15:11;;;;;;;15.67;13.67;;;;;;;;;;7371979;19;20629;-75
2022/05/08 00:17:37;;;;;;;14.93;13.43;;;;;;;;;;7375166;19;20156;-76
2022/05/08 00:20:04;;;;;;;14.67;12.97;;;;;;;;;;7381930;19;20851;-76
2022/05/08 00:22:30;;;;;;;15.20;12.80;;;;;;;;;;7386265;19;20125;-75
2022/05/08 00:24:56;;;;;;;13.97;12.53;;;;;;;;;;7384371;19;20157;-77
2022/05/08 00:27:22;;;;;;;14.73;13.13;;;;;;;;;;7386163;19;20151;-75
2022/05/08 00:29:48;;;;;;;14.27;12.77;;;;;;;;;;7395927;19;20619;-75
2022/05/08 00:32:14;;;;;;;14.10;12.70;;;;;;;;;;7393528;19;20125;-76
2022/05/08 00:34:40;;;;;;;14.40;12.90;;;;;;;;;;7391346;19;20149;-76
2022/05/08 00:37:06;;;;;;;14.83;12.63;;;;;;;;;;7394416;19;20141;-75
2022/05/08 00:39:32;;;;;;;22.10;15.33;;;;;;;;;;7394460;19;20172;-75
2022/05/08 00:42:01;;;;;;;15.03;13.30;;;;;;;;;;7387510;19;20180;-76
2022/05/08 00:44:27;;;;;;;18.37;14.37;;;;;;;;;;7392687;19;20252;-75
2022/05/08 00:46:53;;;;;;;13.43;12.03;;;;;;;;;;7394860;19;20168;-75
2022/05/08 00:49:19;;;;;;;13.50;12.10;;;;;;;;;;7395795;19;20157;-76
2022/05/08 00:51:48;;;;;;;16.27;13.00;;;;;;;;;;7386013;19;20588;-76
2022/05/08 00:54:15;;;;;;;14.20;12.70;;;;;;;;;;7392996;19;20644;-76
2022/05/08 00:56:41;;;;;;;13.10;11.77;;;;;;;;;;7388872;19;20144;-76
2022/05/08 00:59:07;;;;;;;13.40;12.00;;;;;;;;;;7388428;19;20133;-75
2022/05/08 01:01:33;;;;;;;14.40;12.13;;;;;;;;;;7382064;19;20153;-76
2022/05/08 01:03:59;;;;;;;14.37;12.97;;;;;;;;;;7385244;19;20453;-74
2022/05/08 01:06:27;;;;;;;14.40;12.90;;;;;;;;;;7386464;19;20128;-77
2022/05/08 01:08:54;;;;;;;14.10;12.60;;;;;;;;;;7386817;19;20157;-76
2022/05/08 01:11:21;;;;;;;15.67;13.10;;;;;;;;;;7385658;19;20538;-78
2022/05/08 01:13:47;;;;;;;18.20;14.43;;;;;;;;;;7393012;19;20129;-75
2022/05/08 01:16:17;;;;;;;14.47;12.97;;;;;;;;;;7391959;19;20153;-76
2022/05/08 01:18:44;;;;;;;15.33;13.73;;;;;;;;;;7394380;19;20207;-76
2022/05/08 01:21:11;;;;;;;14.13;12.43;;;;;;;;;;7392149;19;21009;-76
2022/05/08 01:23:37;;;;;;;14.87;13.20;;;;;;;;;;7390954;19;20133;-77
2022/05/08 01:26:03;;;;;;;15.00;13.50;;;;;;;;;;7389459;19;20176;-76
2022/05/08 01:28:29;;;;;;;15.40;12.77;;;;;;;;;;7392372;19;20140;-75
2022/05/08 01:30:55;;;;;;;16.43;12.80;;;;;;;;;;7386776;19;20172;-76
2022/05/08 01:33:22;;;;;;;17.50;13.83;;;;;;;;;;7393759;19;20133;-75
2022/05/08 01:35:49;;;;;;;14.90;13.40;;;;;;;;;;7392559;19;20229;-76
2022/05/08 01:38:16;;;;;;;14.77;13.27;;;;;;;;;;7392243;19;20132;-76
2022/05/08 01:40:43;;;;;;;16.93;14.17;;;;;;;;;;7385734;19;20207;-78
2022/05/08 01:43:10;;;;;;;16.33;14.10;;;;;;;;;;7388516;19;20148;-76
2022/05/08 01:45:36;;;;;;;15.53;13.83;;;;;;;;;;7391606;19;20176;-76
2022/05/08 01:50:47;;;;;;;15.43;12.70;;;;;;;;;;7393385;19;20135;-76
2022/05/08 01:53:13;;;;;;;14.60;13.20;;;;;;;;;;7392057;19;20132;-75
2022/05/08 01:55:39;;;;;;;16.40;14.00;;;;;;;;;;7391485;19;20149;-76
2022/05/08 01:58:05;;;;;;;14.53;13.03;;;;;;;;;;7385966;19;20172;-75
2022/05/08 02:00:32;;;;;;;17.37;13.93;;;;;;;;;;7391830;19;20850;-77
2022/05/08 02:02:58;;;;;;;14.20;12.70;;;;;;;;;;7388353;19;20144;-76
2022/05/08 02:05:25;;;;;;;15.27;13.00;;;;;;;;;;7393485;19;20152;-75
2022/05/08 02:07:51;;;;;;;14.00;12.50;;;;;;;;;;7398026;19;20129;-75
2022/05/08 02:10:17;;;;;;;13.40;12.00;;;;;;;;;;7391875;19;20141;-75
2022/05/08 02:12:44;;;;;;;15.60;12.33;;;;;;;;;;7392505;19;20140;-75
2022/05/08 02:15:11;;;;;;;15.20;13.10;;;;;;;;;;7390660;19;20162;-76
2022/05/08 02:17:37;;;;;;;14.50;13.00;;;;;;;;;;7387784;19;20193;-78
2022/05/08 02:20:06;;;;;;;16.00;13.50;;;;;;;;;;7390680;19;20129;-76
2022/05/08 02:22:32;;;;;;;15.83;14.23;;;;;;;;;;7387457;19;20153;-75
2022/05/08 02:24:58;;;;;;;16.90;14.30;;;;;;;;;;7390633;19;20149;-75
2022/05/08 02:27:24;;;;;;;17.43;14.80;;;;;;;;;;7388789;19;20133;-76
2022/05/08 02:29:50;;;;;;;17.93;15.80;;;;;;;;;;7391014;19;20147;-76
2022/05/08 02:32:16;;;;;;;17.27;14.30;;;;;;;;;;7389536;19;20141;-75
2022/05/08 02:34:42;;;;;;;16.87;15.03;;;;;;;;;;7385610;19;20156;-75
2022/05/08 02:37:08;;;;;;;19.33;15.43;;;;;;;;;;7389198;19;20139;-76
2022/05/08 02:39:34;;;;;;;18.27;14.93;;;;;;;;;;7390717;19;20157;-76
2022/05/08 02:42:00;;;;;;;17.97;15.03;;;;;;;;;;7389980;19;20542;-76
2022/05/08 02:44:26;;;;;;;17.60;15.70;;;;;;;;;;7390949;19;20149;-76
2022/05/08 02:46:52;;;;;;;18.97;14.30;;;;;;;;;;7390514;19;20132;-75
2022/05/08 02:49:18;;;;;;;17.67;14.97;;;;;;;;;;7392109;19;20493;-75
2022/05/08 02:51:44;;;;;;;17.63;14.23;;;;;;;;;;7391412;19;20144;-78
2022/05/08 02:54:10;;;;;;;18.97;14.73;;;;;;;;;;7392493;19;20153;-76
2022/05/08 02:59:21;;;;;;;16.03;13.80;;;;;;;;;;7383137;19;20650;-77
2022/05/08 03:01:47;;;;;;;17.27;14.30;;;;;;;;;;7389977;19;20133;-76
2022/05/08 03:04:13;;;;;;;24.17;13.30;;;;;;;;;;7383650;19;20179;-77
2022/05/08 03:06:39;;;;;;;14.60;13.00;;;;;;;;;;7390181;19;20128;-76
2022/05/08 03:09:05;;;;;;;16.87;14.47;;;;;;;;;;7394569;19;20481;-77
2022/05/08 03:11:32;;;;;;;14.20;12.70;;;;;;;;;;7393134;19;20160;-75
2022/05/08 03:13:59;;;;;;;15.87;12.20;;;;;;;;;;7389849;19;20140;-77
2022/05/08 03:16:27;;;;;;;14.70;12.73;;;;;;;;;;7393001;19;20441;-75
2022/05/08 03:18:55;;;;;;;13.37;11.87;;;;;;;;;;7386472;19;20650;-76
2022/05/08 03:21:21;;;;;;;14.80;11.87;;;;;;;;;;7389071;19;20162;-76
2022/05/08 03:23:47;;;;;;;13.67;11.67;;;;;;;;;;7388959;19;20140;-75
2022/05/08 03:26:14;;;;;;;13.97;11.10;;;;;;;;;;7388204;19;20156;-76
2022/05/08 03:28:40;;;;;;;14.03;12.50;;;;;;;;;;7385357;19;20546;-75
2022/05/08 03:31:06;;;;;;;14.53;11.87;;;;;;;;;;7381002;19;20200;-77
2022/05/08 03:33:33;;;;;;;13.20;11.80;;;;;;;;;;7385834;19;20507;-76
2022/05/08 03:35:59;;;;;;;13.00;11.63;;;;;;;;;;7379547;19;20505;-76
2022/05/08 03:38:27;;;;;;;13.10;11.50;;;;;;;;;;7387315;19;20669;-76
2022/05/08 03:40:53;;;;;;;13.97;12.47;;;;;;;;;;7382903;19;20150;-75
2022/05/08 03:43:19;;;;;;;15.77;11.13;;;;;;;;;;7384609;19;20125;-75
2022/05/08 03:45:48;;;;;;;12.93;11.13;;;;;;;;;;7386120;19;20270;-75
2022/05/08 03:48:14;;;;;;;12.80;11.17;;;;;;;;;;7382831;19;20125;-78
2022/05/08 03:50:40;;;;;;;12.83;10.97;;;;;;;;;;7383090;19;20137;-76
2022/05/08 03:53:06;;;;;;;12.23;10.77;;;;;;;;;;7382757;19;20200;-77
2022/05/08 03:55:33;;;;;;;12.13;10.93;;;;;;;;;;7381397;19;20173;-76
2022/05/08 03:57:59;;;;;;;18.97;15.97;;;;;;;;;;7383443;19;20129;-75
2022/05/08 04:00:25;;;;;;;13.97;12.23;;;;;;;;;;7384148;19;20219;-75
2022/05/08 04:02:51;;;;;;;13.37;10.93;;;;;;;;;;7387481;19;20165;-76
2022/05/08 04:05:17;;;;;;;13.47;11.33;;;;;;;;;;7396775;19;20149;-77
2022/05/08 04:07:44;;;;;;;12.47;11.03;;;;;;;;;;7398647;19;20145;-76
2022/05/08 04:10:10;;;;;;;12.87;11.10;;;;;;;;;;7396281;19;20304;-75
2022/05/08 04:12:36;;;;;;;12.53;11.27;;;;;;;;;;7396272;19;20180;-75
2022/05/08 04:15:05;;;;;;;12.33;11.10;;;;;;;;;;7396713;19;20159;-75
2022/05/08 04:17:32;;;;;;;12.20;10.93;;;;;;;;;;7396743;19;20666;-76
2022/05/08 04:19:58;;;;;;;13.43;11.77;;;;;;;;;;7397438;19;20133;-76
2022/05/08 04:25:10;;;;;;;12.90;10.43;;;;;;;;;;7397103;19;20169;-76
2022/05/08 04:27:37;;;;;;;12.47;11.27;;;;;;;;;;7397187;19;20137;-76
2022/05/08 04:30:03;;;;;;;14.23;12.13;;;;;;;;;;7397788;19;20198;-77
2022/05/08 04:32:29;;;;;;;13.30;11.13;;;;;;;;;;7393899;19;20192;-77
2022/05/08 04:34:55;;;;;;;12.90;11.40;;;;;;;;;;7396244;19;20153;-76
2022/05/08 04:37:21;;;;;;;15.63;11.17;;;;;;;;;;7396304;19;20129;-76
2022/05/08 04:39:47;;;;;;;13.30;10.03;;;;;;;;;;7398680;19;20121;-76
2022/05/08 04:42:13;;;;;;;14.83;11.80;;;;;;;;;;7394404;19;20141;-76
2022/05/08 04:44:39;;;;;;;12.53;11.23;;;;;;;;;;7397842;19;20572;-75
2022/05/08 04:47:05;;;;;;;13.73;10.73;;;;;;;;;;7396804;19;20125;-76
2022/05/08 04:49:31;;;;;;;12.77;10.70;;;;;;;;;;7408661;19;20167;-77
2022/05/08 04:51:57;;;;;;;13.93;11.47;;;;;;;;;;7430095;19;20121;-77
2022/05/08 04:54:24;;;;;;;14.73;12.90;;;;;;;;;;7430195;19;20148;-76
2022/05/08 04:56:51;;;;;;;12.80;11.20;;;;;;;;;;7430394;19;20137;-77
2022/05/08 04:59:18;;;;;;;12.93;10.83;;;;;;;;;;7424933;19;20160;-75
2022/05/08 05:01:43;;;;;;;11.60;10.40;;;;;;;;;;7393789;19;20208;-76
2022/05/08 05:04:09;;;;;;;11.10;9.50;;;;;;;;;;7393566;19;20154;-76
2022/05/08 05:06:35;;;;;;;11.73;10.17;;;;;;;;;;7394876;19;20125;-77
2022/05/08 05:09:01;;;;;;;11.73;10.53;;;;;;;;;;7397204;19;20137;-76
2022/05/08 05:11:27;;;;;;;11.27;10.17;;;;;;;;;;7396235;19;20132;-76
2022/05/08 05:13:53;;;;;;;10.50;9.40;;;;;;;;;;7394792;19;20575;-76
2022/05/08 05:16:19;;;;;;;10.73;9.60;;;;;;;;;;7393714;19;20156;-76
2022/05/08 05:18:45;;;;;;;12.53;9.97;;;;;;;;;;7396550;19;20157;-76
2022/05/08 05:21:11;;;;;;;11.23;10.20;;;;;;;;;;7395187;19;20631;-76
2022/05/08 05:23:37;;;;;;;11.20;10.00;;;;;;;;;;7396355;19;20117;-76
2022/05/08 05:26:03;;;;;;;11.73;10.63;;;;;;;;;;7393699;19;20666;-76
2022/05/08 05:28:30;;;;;;;13.70;10.00;;;;;;;;;;7396602;19;20583;-77
2022/05/08 05:30:56;;;;;;;11.43;10.23;;;;;;;;;;7396133;19;20125;-77
2022/05/08 05:33:22;;;;;;;11.53;10.43;;;;;;;;;;7394886;19;20145;-78
2022/05/08 05:35:48;;;;;;;11.07;9.80;;;;;;;;;;7393852;19;20570;-77
2022/05/08 05:38:14;;;;;;;10.50;9.40;;;;;;;;;;7393124;19;20152;-77
2022/05/08 05:40:40;;;;;;;11.03;9.93;;;;;;;;;;7396560;19;20196;-76
2022/05/08 05:43:06;;;;;;;10.77;9.67;;;;;;;;;;7390359;19;20208;-76
2022/05/08 05:45:32;;;;;;;11.10;10.07;;;;;;;;;;7389874;19;20160;-76
2022/05/08 05:48:00;;;;;;;10.67;9.57;;;;;;;;;;7392755;19;20129;-77
2022/05/08 05:50:27;;;;;;;10.80;9.70;;;;;;;;;;7393171;19;20628;-75
2022/05/08 05:52:53;;;;;;;11.63;9.70;;;;;;;;;;7392395;19;20515;-76
2022/05/08 05:55:20;;;;;;;10.97;9.87;;;;;;;;;;7391695;19;20156;-75
2022/05/08 05:57:46;;;;;;;11.60;9.67;;;;;;;;;;7392545;19;20661;-77
2022/05/08 06:00:14;;;;;;;10.60;9.60;;;;;;;;;;7394234;19;20132;-75
2022/05/08 06:02:40;;;;;;;11.47;10.27;;;;;;;;;;7390435;19;20131;-76
2022/05/08 06:05:07;;;;;;;11.23;10.13;;;;;;;;;;7391323;19;20481;-75
2022/05/08 06:07:37;;;;;;;10.90;9.87;;;;;;;;;;7391245;19;20220;-76
2022/05/08 18:09:53;;;;;;;8.90;5.32;;;;;;;;;;7380815;19;20165;-78
2022/05/08 18:12:20;;;;;;;6.00;5.47;;;;;;;;;;7383146;19;20760;-77
2022/05/08 18:14:46;;;;;;;7.70;6.03;;;;;;;;;;7387515;19;20156;-77
2022/05/08 18:17:12;;;;;;;6.38;5.70;;;;;;;;;;7388039;19;20157;-77
2022/05/08 18:19:39;;;;;;;6.05;5.43;;;;;;;;;;7381285;19;20268;-78
2022/05/08 18:22:05;;;;;;;6.90;6.30;;;;;;;;;;7348643;19;20153;-77
2022/05/08 18:24:31;;;;;;;6.45;5.85;;;;;;;;;;7381658;19;20261;-77
2022/05/08 18:26:57;;;;;;;7.32;6.63;;;;;;;;;;7386996;19;20137;-77
2022/05/08 18:29:23;;;;;;;6.50;5.90;;;;;;;;;;7392123;19;20152;-78
2022/05/08 18:31:49;;;;;;;7.45;5.50;;;;;;;;;;7391916;19;20590;-77
2022/05/08 18:34:15;;;;;;;7.35;6.65;;;;;;;;;;7387279;19;20184;-79
2022/05/08 18:36:41;;;;;;;6.97;6.38;;;;;;;;;;7384918;19;20117;-77
2022/05/08 18:39:07;;;;;;;7.25;6.63;;;;;;;;;;7366519;19;20490;-76
2022/05/08 18:41:33;;;;;;;6.57;5.97;;;;;;;;;;7376653;19;20154;-77
2022/05/08 18:44:01;;;;;;;7.30;6.10;;;;;;;;;;7385994;19;20140;-76
2022/05/08 18:46:27;;;;;;;7.65;6.57;;;;;;;;;;7382260;19;20144;-76
2022/05/08 18:51:38;;;;;;;7.63;6.47;;;;;;;;;;7373256;19;20120;-76
2022/05/08 18:54:05;;;;;;;7.13;6.53;;;;;;;;;;7378593;19;20159;-76
2022/05/08 18:56:31;;;;;;;6.70;6.07;;;;;;;;;;7385145;19;20628;-76
2022/05/08 18:58:57;;;;;;;8.18;6.40;;;;;;;;;;7380244;19;20149;-77
2022/05/08 19:01:23;;;;;;;90.10;58.80;;;;;;;;;;7375801;19;20133;-76
2022/05/08 19:03:49;;;;;;;8.05;6.68;;;;;;;;;;7380129;19;20547;-78
2022/05/08 19:06:16;;;;;;;9.40;6.37;;;;;;;;;;7383668;19;20224;-77
2022/05/08 19:08:42;;;;;;;6.43;5.87;;;;;;;;;;7379099;19;20643;-77
2022/05/08 19:11:08;;;;;;;6.63;6.00;;;;;;;;;;7381708;19;20149;-76
2022/05/08 19:13:36;;;;;;;7.07;6.20;;;;;;;;;;7376100;19;20141;-77
2022/05/08 19:16:02;;;;;;;6.57;5.97;;;;;;;;;;7377852;19;20187;-78
2022/05/08 19:18:28;;;;;;;6.67;6.07;;;;;;;;;;7377437;19;20128;-76
2022/05/08 19:20:54;;;;;;;7.27;6.23;;;;;;;;;;7367553;19;20136;-77
2022/05/08 19:23:21;;;;;;;7.00;6.40;;;;;;;;;;7383090;19;20480;-77
2022/05/08 19:25:47;;;;;;;8.77;6.50;;;;;;;;;;7383513;19;20178;-76
2022/05/08 19:28:16;;;;;;;6.30;5.80;;;;;;;;;;7385717;19;20139;-77
2022/05/08 19:30:42;;;;;;;7.37;5.87;;;;;;;;;;7383353;19;20153;-78
2022/05/08 19:38:38;;;;;;;6.57;5.80;;;;;;;;;;7378548;19;20132;-77
2022/05/08 19:41:04;;;;;;;7.20;6.40;;;;;;;;;;7376725;19;20143;-77
2022/05/08 19:43:30;;;;;;;6.50;5.90;;;;;;;;;;7388362;19;20485;-77
2022/05/08 19:45:56;;;;;;;6.53;5.93;;;;;;;;;;7362137;19;20568;-76
2022/05/08 19:48:22;;;;;;;6.20;5.67;;;;;;;;;;7380870;19;20160;-77
2022/05/08 19:50:48;;;;;;;6.37;5.67;;;;;;;;;;7388450;19;20129;-77
2022/05/08 19:53:14;;;;;;;5.83;5.30;;;;;;;;;;7386130;19;20145;-78
2022/05/08 19:55:40;;;;;;;8.53;5.33;;;;;;;;;;7382541;19;20580;-77
2022/05/08 19:58:07;;;;;;;5.93;5.33;;;;;;;;;;7387256;19;20149;-76
2022/05/08 20:00:33;;;;;;;5.67;5.17;;;;;;;;;;7383947;19;20149;-77
2022/05/08 20:03:01;;;;;;;5.97;5.37;;;;;;;;;;7386337;19;20156;-78
2022/05/08 20:05:27;;;;;;;6.10;5.53;;;;;;;;;;7365746;19;20196;-78
2022/05/08 20:07:53;;;;;;;5.93;5.43;;;;;;;;;;7377015;19;20145;-77
2022/05/08 20:10:20;;;;;;;6.93;6.30;;;;;;;;;;7389111;19;20551;-78
2022/05/08 20:12:46;;;;;;;6.93;6.23;;;;;;;;;;7385151;19;20602;-77
2022/05/08 20:15:12;;;;;;;10.50;8.60;;;;;;;;;;7390343;19;20164;-78
2022/05/08 20:17:38;;;;;;;16.97;12.50;;;;;;;;;;7389634;19;20484;-78
2022/05/08 20:22:50;;;;;;;7.80;7.03;;;;;;;;;;7387582;19;20136;-79
2022/05/08 20:25:16;;;;;;;7.60;5.73;;;;;;;;;;7383249;19;20576;-78
2022/05/08 20:27:42;;;;;;;7.40;6.03;;;;;;;;;;7380851;19;20133;-77
2022/05/08 20:30:08;;;;;;;6.37;5.77;;;;;;;;;;7380328;19;20129;-77
2022/05/08 20:32:34;;;;;;;6.17;5.67;;;;;;;;;;7369238;19;20676;-77
2022/05/08 20:35:00;;;;;;;6.10;5.50;;;;;;;;;;7387285;19;20148;-77
2022/05/08 20:37:25;;;;;;;7.00;5.50;;;;;;;;;;7386784;19;20183;-77
2022/05/08 20:39:51;;;;;;;7.77;5.93;;;;;;;;;;7385304;19;20137;-77
2022/05/08 20:42:17;;;;;;;7.37;5.77;;;;;;;;;;7377407;19;20193;-77
2022/05/08 20:44:44;;;;;;;6.90;6.10;;;;;;;;;;7387659;19;20148;-77
2022/05/08 20:47:10;;;;;;;6.40;5.80;;;;;;;;;;7391074;19;20158;-77
2022/05/08 20:49:36;;;;;;;6.27;5.60;;;;;;;;;;7395159;19;20626;-77
2022/05/08 20:52:02;;;;;;;6.83;5.70;;;;;;;;;;7395388;19;20156;-77
2022/05/08 20:54:29;;;;;;;16.90;12.57;;;;;;;;;;7395111;19;20180;-77
2022/05/08 20:56:55;;;;;;;7.57;6.87;;;;;;;;;;7389846;19;20171;-78
2022/05/08 20:59:21;;;;;;;6.37;5.77;;;;;;;;;;7392401;19;20140;-77
2022/05/08 21:01:47;;;;;;;6.43;5.63;;;;;;;;;;7395286;19;20144;-77
2022/05/08 21:04:13;;;;;;;6.57;5.97;;;;;;;;;;7391754;19;20191;-76
2022/05/08 21:09:24;;;;;;;7.10;6.40;;;;;;;;;;7396385;19;20159;-77
2022/05/08 21:11:50;;;;;;;6.87;6.17;;;;;;;;;;7393439;19;20157;-76
2022/05/08 21:14:16;;;;;;;6.90;6.23;;;;;;;;;;7389685;19;20198;-77
2022/05/08 21:16:42;;;;;;;7.70;6.03;;;;;;;;;;7385073;19;20216;-77
2022/05/08 21:19:09;;;;;;;6.93;6.00;;;;;;;;;;7383067;19;20121;-77
2022/05/08 21:21:35;;;;;;;7.63;6.13;;;;;;;;;;7378206;19;20166;-76
2022/05/08 21:24:01;;;;;;;6.37;5.87;;;;;;;;;;7378416;19;20682;-76
2022/05/08 21:26:27;;;;;;;7.37;6.20;;;;;;;;;;7387531;19;20561;-77
2022/05/08 21:28:54;;;;;;;7.07;5.93;;;;;;;;;;7388027;19;20153;-79
2022/05/08 21:31:20;;;;;;;7.07;6.20;;;;;;;;;;7391292;19;20200;-76
2022/05/08 21:33:46;;;;;;;8.10;7.30;;;;;;;;;;7393063;19;20666;-77
2022/05/08 21:36:13;;;;;;;7.17;6.53;;;;;;;;;;7392248;19;20193;-76
2022/05/08 21:38:39;;;;;;;6.53;5.90;;;;;;;;;;7396603;19;20133;-76
2022/05/08 21:41:06;;;;;;;7.00;6.27;;;;;;;;;;7394667;19;20153;-77
2022/05/08 21:43:32;;;;;;;7.00;6.40;;;;;;;;;;7387450;19;20156;-77
2022/05/08 21:45:58;;;;;;;7.13;6.43;;;;;;;;;;7392540;19;20192;-78
2022/05/08 21:48:24;;;;;;;6.93;6.23;;;;;;;;;;7389520;19;20178;-78
2022/05/08 21:50:50;;;;;;;7.37;6.67;;;;;;;;;;7388346;19;20161;-78
2022/05/08 21:53:16;;;;;;;7.00;6.20;;;;;;;;;;7388447;19;20570;-77
2022/05/08 21:55:42;;;;;;;7.63;6.67;;;;;;;;;;7393565;19;20157;-76
2022/05/08 21:58:08;;;;;;;7.17;6.57;;;;;;;;;;7390863;19;20151;-77
2022/05/08 22:00:34;;;;;;;7.40;6.47;;;;;;;;;;7394132;19;20216;-77
2022/05/08 22:03:00;;;;;;;7.60;6.80;;;;;;;;;;7392461;19;20595;-77
2022/05/08 22:05:26;;;;;;;8.17;7.37;;;;;;;;;;7391956;19;20149;-77
2022/05/08 22:07:52;;;;;;;8.20;7.20;;;;;;;;;;7393306;19;20121;-77
2022/05/08 22:10:18;;;;;;;8.03;7.23;;;;;;;;;;7394746;19;20141;-76
2022/05/08 22:12:44;;;;;;;7.60;6.53;;;;;;;;;;7393792;19;20163;-77
2022/05/08 22:15:10;;;;;;;8.27;6.97;;;;;;;;;;7392067;19;20186;-76
2022/05/08 22:17:37;;;;;;;8.43;7.47;;;;;;;;;;7392758;19;20616;-77
2022/05/08 22:20:03;;;;;;;7.33;6.50;;;;;;;;;;7393465;19;20296;-76
2022/05/08 22:22:30;;;;;;;7.27;6.57;;;;;;;;;;7389410;19;20133;-77
2022/05/08 22:24:56;;;;;;;7.80;7.00;;;;;;;;;;7390585;19;20184;-77
2022/05/08 22:27:22;;;;;;;8.27;7.27;;;;;;;;;;7392283;19;20143;-77
2022/05/08 22:29:48;;;;;;;8.00;6.97;;;;;;;;;;7392860;19;20180;-76
2022/05/08 22:32:14;;;;;;;7.63;6.93;;;;;;;;;;7391662;19;20614;-77
2022/05/08 22:34:40;;;;;;;9.40;7.47;;;;;;;;;;7392666;19;20255;-77
2022/05/08 22:37:06;;;;;;;8.83;7.93;;;;;;;;;;7392368;19;20152;-77
2022/05/08 22:39:32;;;;;;;9.20;7.90;;;;;;;;;;7391194;19;20236;-76
2022/05/08 22:41:58;;;;;;;9.10;8.20;;;;;;;;;;7384499;19;20141;-78
2022/05/08 22:44:24;;;;;;;9.20;8.30;;;;;;;;;;7392610;19;20638;-76
2022/05/08 22:46:50;;;;;;;9.73;8.73;;;;;;;;;;7392896;19;20140;-77
2022/05/08 22:49:16;;;;;;;12.83;8.43;;;;;;;;;;7387391;19;20192;-77
2022/05/08 22:51:42;;;;;;;8.70;7.87;;;;;;;;;;7392456;19;20129;-76
2022/05/08 22:54:08;;;;;;;8.77;7.87;;;;;;;;;;7391121;19;20167;-76
2022/05/08 22:56:34;;;;;;;9.00;8.10;;;;;;;;;;7407041;19;20168;-76
2022/05/08 22:59:00;;;;;;;8.87;8.00;;;;;;;;;;7422355;19;20132;-76
2022/05/08 23:01:26;;;;;;;9.67;8.53;;;;;;;;;;7426554;19;20241;-77
2022/05/08 23:03:52;;;;;;;9.27;8.03;;;;;;;;;;7425361;19;20165;-76
2022/05/08 23:06:18;;;;;;;9.23;8.33;;;;;;;;;;7428280;19;20125;-77
2022/05/08 23:08:47;;;;;;;9.53;8.53;;;;;;;;;;7395794;19;20201;-77
2022/05/08 23:11:14;;;;;;;9.23;8.33;;;;;;;;;;7384885;19;20172;-77
2022/05/08 23:13:40;;;;;;;9.87;8.57;;;;;;;;;;7375635;19;20155;-77
2022/05/08 23:16:07;;;;;;;10.00;9.00;;;;;;;;;;7392031;19;20208;-79
2022/05/08 23:18:33;;;;;;;9.63;8.63;;;;;;;;;;7392498;19;20852;-77
2022/05/08 23:20:59;;;;;;;9.27;8.37;;;;;;;;;;7393563;19;20591;-77
2022/05/08 23:23:26;;;;;;;9.43;8.53;;;;;;;;;;7402407;19;20133;-76
2022/05/08 23:25:52;;;;;;;10.03;8.83;;;;;;;;;;7383505;19;20176;-76
2022/05/08 23:28:24;;;;;;;9.53;8.20;;;;;;;;;;7364281;19;20121;-77
2022/05/08 23:30:54;;;;;;;10.60;9.57;;;;;;;;;;7380375;19;20140;-76
2022/05/08 23:33:22;;;;;;;10.07;9.00;;;;;;;;;;7390465;19;20216;-77
2022/05/08 23:35:49;;;;;;;9.43;8.43;;;;;;;;;;7393038;19;20148;-77
2022/05/08 23:38:14;;;;;;;10.30;8.73;;;;;;;;;;7366075;19;20133;-77
2022/05/08 23:40:41;;;;;;;10.57;9.47;;;;;;;;;;7384016;19;21195;-77
2022/05/08 23:43:08;;;;;;;10.63;9.13;;;;;;;;;;7370151;19;20163;-77
2022/05/08 23:45:37;;;;;;;10.20;9.20;;;;;;;;;;7365914;19;20222;-76
2022/05/08 23:48:03;;;;;;;9.90;8.97;;;;;;;;;;7376942;19;20181;-76
2022/05/08 23:50:29;;;;;;;12.57;9.47;;;;;;;;;;7379082;19;20192;-77
2022/05/08 23:52:55;;;;;;;9.97;8.90;;;;;;;;;;7369389;19;20133;-76
2022/05/08 23:55:23;;;;;;;11.53;9.50;;;;;;;;;;7376651;19;20189;-77
2022/05/08 23:57:49;;;;;;;9.53;8.53;;;;;;;;;;7384432;19;20499;-77
